Time;durP1;ratioP1;P1;durP2;ratioP2;P2;SDS_P1;SDS_P2;PMS_P1;PMS_P2;Temp;Humidity;BMP_temperature;BMP_pressure;BME280_temperature;BME280_humidity;BME280_pressure;Samples;Min_cycle;Max_cycle;Signal;HPM_P1;HPM_P2
2022/04/04 00:00:21;;;;;;;7.60;3.95;;;;;;;;;;5101054;22;20258;-60
2022/04/04 00:02:47;;;;;;;8.00;4.00;;;;;;;;;;5096327;28;20036;-60
2022/04/04 00:05:13;;;;;;;6.00;4.32;;;;;;;;;;5083279;28;20105;-60
2022/04/04 00:07:39;;;;;;;9.35;4.45;;;;;;;;;;5087135;28;20078;-60
2022/04/04 00:10:05;;;;;;;7.88;4.22;;;;;;;;;;5066680;28;20480;-60
2022/04/04 00:12:32;;;;;;;7.35;4.38;;;;;;;;;;5068471;28;20097;-60
2022/04/04 00:14:58;;;;;;;6.70;4.38;;;;;;;;;;5069862;28;20040;-60
2022/04/04 00:17:24;;;;;;;6.22;4.07;;;;;;;;;;5068310;28;20045;-61
2022/04/04 00:19:50;;;;;;;8.57;4.25;;;;;;;;;;5060667;28;20040;-61
2022/04/04 00:22:16;;;;;;;7.38;4.13;;;;;;;;;;5070580;28;20072;-60
2022/04/04 00:24:42;;;;;;;9.32;4.00;;;;;;;;;;5064839;28;20025;-60
2022/04/04 00:27:08;;;;;;;5.93;4.13;;;;;;;;;;5072962;28;20040;-61
2022/04/04 00:29:34;;;;;;;6.78;4.20;;;;;;;;;;5072840;28;20043;-60
2022/04/04 00:32:00;;;;;;;7.03;3.90;;;;;;;;;;5072538;28;20029;-61
2022/04/04 00:34:26;;;;;;;5.53;3.45;;;;;;;;;;5054775;28;20032;-60
2022/04/04 00:36:52;;;;;;;5.85;3.90;;;;;;;;;;5072797;28;20036;-61
2022/04/04 00:39:19;;;;;;;5.43;3.63;;;;;;;;;;5072029;28;20037;-60
2022/04/04 00:41:49;;;;;;;6.15;3.75;;;;;;;;;;5072956;28;20085;-61
2022/04/04 00:44:15;;;;;;;10.20;4.40;;;;;;;;;;5073419;28;20163;-61
2022/04/04 00:46:41;;;;;;;6.70;4.22;;;;;;;;;;5072701;28;20040;-60
2022/04/04 00:49:08;;;;;;;7.97;4.10;;;;;;;;;;5050055;28;20041;-61
2022/04/04 00:51:35;;;;;;;8.85;4.28;;;;;;;;;;5071386;28;20048;-60
2022/04/04 00:54:01;;;;;;;7.85;4.30;;;;;;;;;;5070981;28;20047;-60
2022/04/04 00:56:27;;;;;;;4.15;3.25;;;;;;;;;;5066927;28;20557;-61
2022/04/04 00:58:54;;;;;;;5.22;3.83;;;;;;;;;;5072030;28;20040;-60
2022/04/04 01:01:22;;;;;;;9.35;4.43;;;;;;;;;;5071416;28;20082;-61
2022/04/04 01:03:48;;;;;;;6.07;4.65;;;;;;;;;;5071397;28;20036;-61
2022/04/04 01:06:14;;;;;;;5.78;4.15;;;;;;;;;;5070039;28;20044;-60
2022/04/04 01:08:40;;;;;;;9.05;4.60;;;;;;;;;;5049365;28;20041;-60
2022/04/04 01:11:06;;;;;;;6.38;4.82;;;;;;;;;;5063039;28;20047;-60
2022/04/04 01:13:32;;;;;;;7.90;4.65;;;;;;;;;;5075491;28;20047;-60
2022/04/04 01:15:58;;;;;;;7.20;5.35;;;;;;;;;;5075612;28;20096;-61
2022/04/04 01:18:24;;;;;;;7.90;5.03;;;;;;;;;;5059523;28;20063;-61
2022/04/04 01:20:51;;;;;;;8.02;5.47;;;;;;;;;;5071619;28;20028;-60
2022/04/04 01:23:24;;;;;;;8.65;5.40;;;;;;;;;;5070738;28;20086;-60
2022/04/04 01:25:50;;;;;;;7.82;5.53;;;;;;;;;;5052749;28;20325;-60
2022/04/04 01:28:17;;;;;;;11.10;6.70;;;;;;;;;;5072497;28;20131;-60
2022/04/04 01:30:43;;;;;;;10.52;6.25;;;;;;;;;;5054951;28;20083;-60
2022/04/04 01:33:09;;;;;;;12.45;7.10;;;;;;;;;;5053553;28;20032;-60
2022/04/04 01:35:38;;;;;;;12.90;7.15;;;;;;;;;;5072261;28;20127;-60
2022/04/04 01:38:04;;;;;;;10.10;7.30;;;;;;;;;;5070859;28;20041;-61
2022/04/04 01:40:30;;;;;;;11.80;7.45;;;;;;;;;;5054900;28;20063;-61
2022/04/04 01:42:56;;;;;;;12.85;7.78;;;;;;;;;;5070518;28;20032;-61
2022/04/04 01:48:08;;;;;;;10.38;7.63;;;;;;;;;;5070849;28;20044;-61
2022/04/04 01:50:34;;;;;;;11.45;7.55;;;;;;;;;;5071397;28;20043;-61
2022/04/04 01:55:45;;;;;;;11.27;8.15;;;;;;;;;;5071266;28;20068;-60
2022/04/04 01:58:11;;;;;;;12.60;8.25;;;;;;;;;;5072094;28;20067;-60
2022/04/04 02:00:38;;;;;;;15.07;9.05;;;;;;;;;;5066996;28;20484;-61
2022/04/04 02:03:04;;;;;;;12.07;8.32;;;;;;;;;;5067227;28;20036;-60
2022/04/04 02:05:31;;;;;;;12.98;7.63;;;;;;;;;;5067533;28;20383;-60
2022/04/04 02:07:56;;;;;;;10.20;7.97;;;;;;;;;;5071730;28;20036;-61
2022/04/04 02:10:22;;;;;;;11.90;8.60;;;;;;;;;;5071840;28;20151;-60
2022/04/04 02:12:48;;;;;;;12.05;8.30;;;;;;;;;;5070846;28;20082;-60
2022/04/04 02:15:14;;;;;;;12.57;7.53;;;;;;;;;;5070078;28;20036;-61
2022/04/04 02:17:40;;;;;;;13.98;8.18;;;;;;;;;;5070488;28;20476;-60
2022/04/04 02:20:08;;;;;;;12.48;8.13;;;;;;;;;;5070558;28;20036;-60
2022/04/04 02:22:34;;;;;;;13.07;8.80;;;;;;;;;;5071830;28;20047;-60
2022/04/04 02:25:00;;;;;;;13.10;8.15;;;;;;;;;;5070701;28;20111;-61
2022/04/04 02:27:26;;;;;;;11.80;7.30;;;;;;;;;;5069972;28;20447;-61
2022/04/04 02:29:52;;;;;;;15.45;8.68;;;;;;;;;;5062932;28;20124;-61
2022/04/04 02:32:19;;;;;;;16.50;9.55;;;;;;;;;;5070646;28;20043;-60
2022/04/04 02:34:45;;;;;;;15.25;9.13;;;;;;;;;;5069749;28;20041;-60
2022/04/04 02:37:12;;;;;;;14.20;7.97;;;;;;;;;;5069219;28;20174;-61
2022/04/04 02:39:38;;;;;;;17.30;9.38;;;;;;;;;;5053393;28;20808;-60
2022/04/04 02:42:04;;;;;;;15.98;9.25;;;;;;;;;;5067603;28;20039;-61
2022/04/04 02:44:30;;;;;;;14.85;9.40;;;;;;;;;;5070819;28;20037;-61
2022/04/04 02:46:56;;;;;;;15.40;9.63;;;;;;;;;;5069177;28;20037;-60
2022/04/04 02:49:23;;;;;;;16.80;10.45;;;;;;;;;;5069615;28;20043;-60
2022/04/04 02:51:49;;;;;;;15.98;9.93;;;;;;;;;;5037004;28;20066;-60
2022/04/04 02:54:15;;;;;;;17.52;10.50;;;;;;;;;;5070998;28;20033;-61
2022/04/04 02:56:42;;;;;;;14.52;9.35;;;;;;;;;;5052668;28;20105;-60
2022/04/04 02:59:08;;;;;;;17.55;9.95;;;;;;;;;;5063047;28;20036;-61
2022/04/04 03:01:34;;;;;;;15.77;10.02;;;;;;;;;;5076242;28;20081;-60
2022/04/04 03:04:00;;;;;;;16.67;9.95;;;;;;;;;;5055387;28;20033;-60
2022/04/04 03:06:26;;;;;;;18.17;10.57;;;;;;;;;;5069694;28;20038;-61
2022/04/04 03:08:52;;;;;;;19.52;11.10;;;;;;;;;;5067261;28;20036;-60
2022/04/04 03:11:18;;;;;;;20.67;11.15;;;;;;;;;;5052780;28;20044;-60
2022/04/04 03:13:45;;;;;;;18.60;10.38;;;;;;;;;;5069710;28;20032;-60
2022/04/04 03:16:11;;;;;;;22.25;11.23;;;;;;;;;;5069967;28;20048;-61
2022/04/04 03:18:38;;;;;;;17.52;10.38;;;;;;;;;;5070504;28;20064;-60
2022/04/04 03:21:05;;;;;;;19.33;9.70;;;;;;;;;;5070054;28;20037;-61
2022/04/04 03:23:31;;;;;;;16.85;11.18;;;;;;;;;;5069596;28;20040;-61
2022/04/04 03:25:57;;;;;;;18.15;10.25;;;;;;;;;;5069321;28;20209;-61
2022/04/04 03:28:23;;;;;;;16.02;9.27;;;;;;;;;;5069267;28;20131;-61
2022/04/04 03:30:49;;;;;;;18.35;11.70;;;;;;;;;;5071097;28;20040;-61
2022/04/04 03:33:16;;;;;;;20.20;11.73;;;;;;;;;;5051362;28;20080;-60
2022/04/04 03:35:42;;;;;;;19.08;11.50;;;;;;;;;;5069016;28;20406;-61
2022/04/04 03:38:10;;;;;;;17.73;10.43;;;;;;;;;;5070479;28;20041;-61
2022/04/04 03:40:37;;;;;;;17.70;11.07;;;;;;;;;;5069439;28;20044;-61
2022/04/04 03:43:03;;;;;;;20.67;11.30;;;;;;;;;;5067795;28;20043;-60
2022/04/04 03:45:30;;;;;;;17.48;11.00;;;;;;;;;;5052108;28;20028;-61
2022/04/04 03:47:56;;;;;;;17.85;11.25;;;;;;;;;;5074120;28;20044;-61
2022/04/04 03:50:23;;;;;;;20.88;12.00;;;;;;;;;;5091065;28;20054;-61
2022/04/04 03:52:52;;;;;;;18.45;10.65;;;;;;;;;;5072040;28;20037;-61
2022/04/04 03:55:18;;;;;;;17.50;11.23;;;;;;;;;;5069183;28;20041;-60
2022/04/04 03:57:44;;;;;;;18.63;11.50;;;;;;;;;;5071639;28;20041;-60
2022/04/04 04:00:11;;;;;;;17.17;10.98;;;;;;;;;;5093851;28;20097;-60
2022/04/04 04:02:37;;;;;;;24.10;11.18;;;;;;;;;;5046270;28;20139;-60
2022/04/04 04:05:04;;;;;;;20.30;11.00;;;;;;;;;;5076506;28;20075;-60
2022/04/04 04:07:30;;;;;;;18.27;10.73;;;;;;;;;;5073140;28;20108;-60
2022/04/04 04:09:56;;;;;;;19.08;10.75;;;;;;;;;;5073359;28;20036;-60
2022/04/04 04:12:22;;;;;;;18.27;11.52;;;;;;;;;;5071986;28;20372;-60
2022/04/04 04:14:52;;;;;;;19.00;10.88;;;;;;;;;;5073200;28;20037;-60
2022/04/04 04:17:19;;;;;;;17.45;10.82;;;;;;;;;;5073878;28;20049;-60
2022/04/04 04:22:31;;;;;;;15.95;10.10;;;;;;;;;;5063057;28;20040;-60
2022/04/04 04:24:57;;;;;;;17.90;11.05;;;;;;;;;;5072747;28;20402;-61
2022/04/04 04:27:23;;;;;;;20.00;10.73;;;;;;;;;;5071276;28;20151;-60
2022/04/04 04:29:49;;;;;;;18.50;10.63;;;;;;;;;;5070227;28;20116;-61
2022/04/04 04:32:15;;;;;;;16.48;10.82;;;;;;;;;;5066977;28;20043;-61
2022/04/04 04:34:46;;;;;;;16.08;9.77;;;;;;;;;;5069232;28;20078;-60
2022/04/04 04:37:12;;;;;;;16.52;11.20;;;;;;;;;;5069543;28;20040;-61
2022/04/04 04:39:38;;;;;;;19.40;12.25;;;;;;;;;;5073296;28;20060;-61
2022/04/04 04:42:05;;;;;;;22.02;12.45;;;;;;;;;;5071654;28;20033;-60
2022/04/04 04:44:31;;;;;;;21.77;11.73;;;;;;;;;;5071275;28;20109;-60
2022/04/04 04:46:57;;;;;;;19.80;11.85;;;;;;;;;;5072044;28;20487;-60
2022/04/04 04:49:25;;;;;;;19.20;12.90;;;;;;;;;;5054164;28;20491;-61
2022/04/04 04:51:52;;;;;;;20.35;12.40;;;;;;;;;;5070572;28;20040;-60
2022/04/04 04:54:18;;;;;;;19.35;11.90;;;;;;;;;;5071387;28;20048;-61
2022/04/04 04:56:44;;;;;;;16.23;11.13;;;;;;;;;;5072173;28;20202;-61
2022/04/04 04:59:10;;;;;;;18.20;11.13;;;;;;;;;;5053771;28;20044;-61
2022/04/04 05:01:37;;;;;;;20.48;12.20;;;;;;;;;;5071886;28;20043;-60
2022/04/04 05:04:03;;;;;;;17.70;11.88;;;;;;;;;;5071340;28;20074;-60
2022/04/04 05:06:29;;;;;;;20.67;12.27;;;;;;;;;;5073086;28;20497;-60
2022/04/04 05:08:55;;;;;;;20.38;12.45;;;;;;;;;;5072586;28;20119;-60
2022/04/04 05:11:21;;;;;;;19.17;13.10;;;;;;;;;;5069722;28;20557;-60
2022/04/04 05:13:48;;;;;;;18.10;13.15;;;;;;;;;;5053624;28;20048;-60
2022/04/04 05:16:14;;;;;;;20.77;13.35;;;;;;;;;;5071906;28;20567;-60
2022/04/04 05:18:44;;;;;;;24.25;13.23;;;;;;;;;;5069384;28;20056;-60
2022/04/04 05:21:11;;;;;;;25.10;12.48;;;;;;;;;;5072166;28;20048;-60
2022/04/04 05:23:37;;;;;;;18.83;11.48;;;;;;;;;;5074724;28;20039;-60
2022/04/04 05:26:04;;;;;;;22.30;13.15;;;;;;;;;;5056773;28;20115;-61
2022/04/04 05:28:30;;;;;;;20.92;12.00;;;;;;;;;;5051742;28;20120;-60
2022/04/04 05:30:56;;;;;;;19.48;12.90;;;;;;;;;;5065128;28;20052;-60
2022/04/04 05:33:22;;;;;;;20.73;11.40;;;;;;;;;;5069749;28;20078;-60
2022/04/04 05:35:48;;;;;;;20.17;11.60;;;;;;;;;;5053777;28;20052;-60
2022/04/04 05:38:15;;;;;;;18.83;12.30;;;;;;;;;;5072123;28;20040;-60
2022/04/04 05:40:41;;;;;;;18.65;11.38;;;;;;;;;;5063450;28;20490;-60
2022/04/04 05:43:08;;;;;;;16.92;11.52;;;;;;;;;;5072553;28;20032;-61
2022/04/04 05:45:39;;;;;;;17.02;10.85;;;;;;;;;;5068041;28;20036;-61
2022/04/04 05:48:05;;;;;;;;;;;;;;;;;;5072102;28;20076;-60
2022/04/04 05:50:31;;;;;;;18.05;10.07;;;;;;;;;;5054828;28;19951;-60
2022/04/04 05:52:57;;;;;;;17.05;9.98;;;;;;;;;;5070544;28;20063;-61
2022/04/04 05:55:23;;;;;;;20.83;10.43;;;;;;;;;;5067486;28;20501;-60
2022/04/04 05:57:49;;;;;;;15.93;10.27;;;;;;;;;;5072295;28;20049;-60
2022/04/04 06:00:15;;;;;;;17.73;10.37;;;;;;;;;;5085752;22;20040;31
2022/04/04 06:02:42;;;;;;;14.88;10.68;;;;;;;;;;5106972;28;20839;-61
2022/04/04 06:05:08;;;;;;;13.25;7.53;;;;;;;;;;5092333;28;20047;-61
2022/04/04 06:07:38;;;;;;;15.48;9.40;;;;;;;;;;5105587;28;20065;-61
2022/04/04 06:10:06;;;;;;;15.55;9.77;;;;;;;;;;5112093;28;20032;-61
2022/04/04 06:12:34;;;;;;;13.38;9.80;;;;;;;;;;5092203;28;20046;-62
2022/04/04 06:15:00;;;;;;;16.20;10.80;;;;;;;;;;5092259;28;20121;-61
2022/04/04 06:17:26;;;;;;;15.90;10.45;;;;;;;;;;5091176;28;20067;-62
2022/04/04 06:19:52;;;;;;;17.17;9.55;;;;;;;;;;5088569;28;20032;-62
2022/04/04 06:22:18;;;;;;;14.93;9.45;;;;;;;;;;5090696;28;20039;-61
2022/04/04 06:24:44;;;;;;;16.90;10.15;;;;;;;;;;5091564;28;20044;-61
2022/04/04 06:27:10;;;;;;;12.50;8.52;;;;;;;;;;5091296;28;20040;-61
2022/04/04 06:29:36;;;;;;;14.70;9.20;;;;;;;;;;5073080;28;20055;-61
2022/04/04 06:32:03;;;;;;;14.23;9.07;;;;;;;;;;5091903;28;20036;-59
2022/04/04 06:34:29;;;;;;;16.30;9.32;;;;;;;;;;5091546;28;20262;-59
2022/04/04 06:36:56;;;;;;;14.93;9.75;;;;;;;;;;5085981;28;20051;-59
2022/04/04 06:39:22;;;;;;;12.02;8.00;;;;;;;;;;5056335;28;20036;-60
2022/04/04 06:41:49;;;;;;;14.77;8.27;;;;;;;;;;5085461;28;20033;-60
2022/04/04 06:44:16;;;;;;;15.90;9.18;;;;;;;;;;5091706;28;20047;-60
2022/04/04 06:46:42;;;;;;;16.70;10.60;;;;;;;;;;5088381;28;20079;-60
2022/04/04 06:49:08;;;;;;;15.05;9.48;;;;;;;;;;5087332;28;20044;-60
2022/04/04 06:51:34;;;;;;;13.77;9.30;;;;;;;;;;5088211;28;20055;-60
2022/04/04 06:54:03;;;;;;;14.57;10.20;;;;;;;;;;5083562;28;20036;-60
2022/04/04 06:56:29;;;;;;;14.30;9.55;;;;;;;;;;5074391;28;20048;-60
2022/04/04 06:58:55;;;;;;;20.13;10.13;;;;;;;;;;5090775;28;20069;-61
2022/04/04 07:01:21;;;;;;;17.27;10.10;;;;;;;;;;5072312;28;20121;-60
2022/04/04 07:03:47;;;;;;;13.35;9.00;;;;;;;;;;5078334;28;20036;-60
2022/04/04 07:06:13;;;;;;;15.43;10.05;;;;;;;;;;5085779;28;20040;-60
2022/04/04 07:08:39;;;;;;;16.35;9.85;;;;;;;;;;5086848;28;20435;-60
2022/04/04 07:11:08;;;;;;;13.25;9.25;;;;;;;;;;5077332;28;20032;-60
2022/04/04 07:13:34;;;;;;;17.08;10.10;;;;;;;;;;5089920;28;20040;-60
2022/04/04 07:16:00;;;;;;;13.65;10.07;;;;;;;;;;5086967;28;20066;-61
2022/04/04 07:18:25;;;;;;;17.30;10.43;;;;;;;;;;5063517;28;20044;-60
2022/04/04 07:20:51;;;;;;;16.10;10.00;;;;;;;;;;5072833;28;20122;-61
2022/04/04 07:23:17;;;;;;;17.48;8.98;;;;;;;;;;5081950;28;20032;-62
2022/04/04 07:25:43;;;;;;;13.20;9.52;;;;;;;;;;5086551;28;20525;-61
2022/04/04 07:28:10;;;;;;;13.77;9.13;;;;;;;;;;5083814;28;20036;-61
2022/04/04 07:30:36;;;;;;;15.55;10.88;;;;;;;;;;5077063;28;20051;-61
2022/04/04 07:33:04;;;;;;;15.85;10.30;;;;;;;;;;5074849;28;20458;-61
2022/04/04 07:35:30;;;;;;;17.98;12.02;;;;;;;;;;5086394;28;20040;-61
2022/04/04 07:37:56;;;;;;;19.63;11.07;;;;;;;;;;5094099;28;20036;-61
2022/04/04 07:40:22;;;;;;;15.18;10.77;;;;;;;;;;5075565;28;20048;-61
2022/04/04 07:42:48;;;;;;;17.38;10.95;;;;;;;;;;5091809;28;20100;-61
2022/04/04 07:45:15;;;;;;;19.33;12.23;;;;;;;;;;5067645;28;20040;-62
2022/04/04 07:47:42;;;;;;;15.80;10.18;;;;;;;;;;5082811;28;20239;-61
2022/04/04 07:50:09;;;;;;;17.55;12.55;;;;;;;;;;5071256;28;20036;-62
2022/04/04 07:52:35;;;;;;;20.40;12.13;;;;;;;;;;5080361;28;20035;-61
2022/04/04 07:55:01;;;;;;;20.60;11.57;;;;;;;;;;5090377;28;20036;-62
2022/04/04 07:57:27;;;;;;;16.27;11.70;;;;;;;;;;5074883;28;20387;-62
2022/04/04 07:59:53;;;;;;;18.48;11.25;;;;;;;;;;5074778;28;20044;-64
2022/04/04 08:02:19;;;;;;;17.48;12.57;;;;;;;;;;5090743;28;20439;-62
2022/04/04 08:04:46;;;;;;;17.50;12.52;;;;;;;;;;5093579;28;20480;-62
2022/04/04 08:07:12;;;;;;;17.45;12.02;;;;;;;;;;5085261;28;20032;-62
2022/04/04 08:09:39;;;;;;;16.73;11.63;;;;;;;;;;5074441;28;20563;-62
2022/04/04 08:12:05;;;;;;;17.02;11.20;;;;;;;;;;5088631;28;20036;-62
2022/04/04 08:14:31;;;;;;;20.25;13.82;;;;;;;;;;5087127;28;20036;-62
2022/04/04 08:16:57;;;;;;;20.75;13.18;;;;;;;;;;5093559;28;20485;-61
2022/04/04 08:19:25;;;;;;;17.20;13.02;;;;;;;;;;5074440;28;20041;-62
2022/04/04 08:21:51;;;;;;;20.48;13.13;;;;;;;;;;5084241;28;20083;-62
2022/04/04 08:24:17;;;;;;;17.55;12.55;;;;;;;;;;5091032;28;20068;-62
2022/04/04 08:26:43;;;;;;;17.23;11.73;;;;;;;;;;5081891;28;20506;-62
2022/04/04 08:29:09;;;;;;;21.10;13.30;;;;;;;;;;5091597;28;20440;-62
2022/04/04 08:31:35;;;;;;;16.50;11.48;;;;;;;;;;5091705;28;20040;-62
2022/04/04 08:34:01;;;;;;;18.83;12.70;;;;;;;;;;5085041;28;20036;-62
2022/04/04 08:36:27;;;;;;;22.60;14.32;;;;;;;;;;5091072;28;20048;-62
2022/04/04 08:38:53;;;;;;;19.60;13.75;;;;;;;;;;5076859;28;20414;-61
2022/04/04 08:41:21;;;;;;;21.05;13.80;;;;;;;;;;5089022;28;20051;-62
2022/04/04 08:43:49;;;;;;;19.90;13.18;;;;;;;;;;5087327;28;20505;-62
2022/04/04 08:46:16;;;;;;;16.52;10.80;;;;;;;;;;5094240;28;20227;-61
2022/04/04 08:48:42;;;;;;;20.20;13.82;;;;;;;;;;5089169;28;20039;-62
2022/04/04 08:51:08;;;;;;;20.52;13.77;;;;;;;;;;5082035;28;20043;-62
2022/04/04 08:53:38;;;;;;;16.45;12.13;;;;;;;;;;5093623;28;20047;-61
2022/04/04 08:56:05;;;;;;;15.73;11.48;;;;;;;;;;5094145;28;20124;-62
2022/04/04 08:58:31;;;;;;;17.98;11.95;;;;;;;;;;5093191;28;20036;-62
2022/04/04 09:00:58;;;;;;;16.63;11.52;;;;;;;;;;5092171;28;20451;-62
2022/04/04 09:03:29;;;;;;;13.75;9.02;;;;;;;;;;5082328;28;20032;-62
2022/04/04 09:05:56;;;;;;;13.63;11.05;;;;;;;;;;5070323;28;20393;-62
2022/04/04 09:08:23;;;;;;;15.02;11.13;;;;;;;;;;5085596;28;20044;-62
2022/04/04 09:10:54;;;;;;;15.43;10.68;;;;;;;;;;5075567;28;20046;-62
2022/04/04 09:13:21;;;;;;;15.23;10.10;;;;;;;;;;5090147;28;20493;-62
2022/04/04 09:15:53;;;;;;;12.45;9.13;;;;;;;;;;5087639;28;20040;-63
2022/04/04 09:18:25;;;;;;;11.20;7.60;;;;;;;;;;5081925;28;20510;-62
2022/04/04 09:20:51;;;;;;;9.80;7.60;;;;;;;;;;5088036;28;20043;-62
2022/04/04 09:23:18;;;;;;;13.82;10.13;;;;;;;;;;5093583;28;20047;-62
2022/04/04 09:25:44;;;;;;;10.90;7.63;;;;;;;;;;5093502;28;20093;-61
2022/04/04 09:28:18;;;;;;;13.88;8.75;;;;;;;;;;5091651;28;20048;-62
2022/04/04 09:30:44;;;;;;;9.43;7.78;;;;;;;;;;5093100;28;20371;-62
2022/04/04 09:33:14;;;;;;;10.93;7.15;;;;;;;;;;5093283;28;20453;-62
2022/04/04 09:35:46;;;;;;;10.77;6.97;;;;;;;;;;5093180;28;20073;-62
2022/04/04 09:38:13;;;;;;;6.75;6.00;;;;;;;;;;5092732;28;20454;-62
2022/04/04 09:40:39;;;;;;;7.53;5.60;;;;;;;;;;5092957;28;20036;-62
2022/04/04 09:43:06;;;;;;;9.07;5.60;;;;;;;;;;5087083;28;20405;-62
2022/04/04 09:45:32;;;;;;;9.20;5.55;;;;;;;;;;5089052;28;20379;-61
2022/04/04 09:47:59;;;;;;;7.45;5.57;;;;;;;;;;5089703;28;20035;-62
2022/04/04 09:50:38;;;;;;;4.90;4.10;;;;;;;;;;5087365;28;20104;-62
2022/04/04 09:53:05;;;;;;;9.23;4.57;;;;;;;;;;5092046;28;20044;-62
2022/04/04 09:55:36;;;;;;;6.45;4.40;;;;;;;;;;5078946;28;20119;-63
2022/04/04 09:58:04;;;;;;;5.82;3.70;;;;;;;;;;5073647;28;20051;-63
2022/04/04 10:00:31;;;;;;;7.05;4.63;;;;;;;;;;5092872;28;20051;-63
2022/04/04 10:02:57;;;;;;;7.80;4.93;;;;;;;;;;5092543;28;20124;-63
2022/04/04 10:05:27;;;;;;;6.10;5.28;;;;;;;;;;5092257;28;20527;-63
2022/04/04 10:07:55;;;;;;;4.80;3.95;;;;;;;;;;5092364;28;20044;-63
2022/04/04 10:10:31;;;;;;;6.22;4.00;;;;;;;;;;5090023;28;20036;-63
2022/04/04 10:12:58;;;;;;;5.13;3.95;;;;;;;;;;5072121;28;20040;-63
2022/04/04 10:15:25;;;;;;;6.60;4.45;;;;;;;;;;5091805;28;20074;-63
2022/04/04 10:17:51;;;;;;;8.88;4.40;;;;;;;;;;5092277;28;20040;-63
2022/04/04 10:20:19;;;;;;;6.95;5.30;;;;;;;;;;5091993;28;20047;-63
2022/04/04 10:22:49;;;;;;;5.38;4.63;;;;;;;;;;5092274;28;20147;-63
2022/04/04 10:25:16;;;;;;;6.93;3.60;;;;;;;;;;5089294;28;20028;-63
2022/04/04 10:27:46;;;;;;;6.20;4.10;;;;;;;;;;5091116;28;20120;-63
2022/04/04 10:30:13;;;;;;;6.95;4.78;;;;;;;;;;5086083;28;20081;-63
2022/04/04 10:32:49;;;;;;;6.97;5.03;;;;;;;;;;5081990;28;20039;-63
2022/04/04 10:35:19;;;;;;;6.30;5.03;;;;;;;;;;5089676;28;20071;-63
2022/04/04 10:37:45;;;;;;;6.20;5.55;;;;;;;;;;5089024;28;20058;-62
2022/04/04 10:40:21;;;;;;;6.45;4.35;;;;;;;;;;5083681;28;20036;-62
2022/04/04 10:42:57;;;;;;;7.18;4.90;;;;;;;;;;5066988;28;20051;-62
2022/04/04 10:45:23;;;;;;;6.75;5.35;;;;;;;;;;5087115;28;20059;-62
2022/04/04 10:47:50;;;;;;;6.88;5.25;;;;;;;;;;5088445;28;20028;-62
2022/04/04 10:50:16;;;;;;;6.75;4.93;;;;;;;;;;5064532;28;20048;-63
2022/04/04 10:52:43;;;;;;;7.75;5.22;;;;;;;;;;5072246;28;20429;-62
2022/04/04 10:55:27;;;;;;;7.00;4.40;;;;;;;;;;5080760;28;20055;-63
2022/04/04 10:58:00;;;;;;;7.43;5.10;;;;;;;;;;5086917;28;20044;-62
2022/04/04 11:00:53;;;;;;;7.07;4.93;;;;;;;;;;5087911;28;20055;-63
2022/04/04 11:03:29;;;;;;;8.82;5.20;;;;;;;;;;5080467;28;20378;-63
2022/04/04 11:08:58;;;;;;;8.18;5.35;;;;;;;;;;5088688;28;20493;-64
2022/04/04 11:11:45;;;;;;;7.45;4.97;;;;;;;;;;5088380;28;20108;-64
2022/04/04 11:14:36;;;;;;;5.75;4.10;;;;;;;;;;5081127;28;20093;-64
2022/04/04 11:17:09;;;;;;;6.57;4.57;;;;;;;;;;5090044;28;20513;-64
2022/04/04 11:19:45;;;;;;;6.35;4.88;;;;;;;;;;5087727;28;20055;-63
2022/04/04 11:22:13;;;;;;;8.00;4.60;;;;;;;;;;5090003;28;20040;-63
2022/04/04 11:24:39;;;;;;;8.00;4.50;;;;;;;;;;5073047;28;20040;-63
2022/04/04 11:27:05;;;;;;;6.00;4.90;;;;;;;;;;5090382;28;20039;-63
2022/04/04 11:29:31;;;;;;;8.35;4.80;;;;;;;;;;5087909;28;20561;-63
2022/04/04 11:31:57;;;;;;;6.90;4.55;;;;;;;;;;5089007;28;20486;-62
2022/04/04 11:34:27;;;;;;;6.30;4.72;;;;;;;;;;5091068;28;20043;-63
2022/04/04 11:36:53;;;;;;;5.90;4.60;;;;;;;;;;5085966;28;20051;-63
2022/04/04 11:39:19;;;;;;;5.88;3.65;;;;;;;;;;5089461;28;20048;-63
2022/04/04 11:41:54;;;;;;;6.97;4.18;;;;;;;;;;5086621;28;20033;-64
2022/04/04 11:44:26;;;;;;;6.60;4.75;;;;;;;;;;5085249;28;20044;-64
2022/04/04 11:47:02;;;;;;;6.40;3.75;;;;;;;;;;5067284;28;20047;-63
2022/04/04 11:49:33;;;;;;;4.15;2.92;;;;;;;;;;5081575;28;20044;-63
2022/04/04 11:52:04;;;;;;;4.43;3.47;;;;;;;;;;5079356;28;20044;-62
2022/04/04 11:54:38;;;;;;;4.40;3.42;;;;;;;;;;5070993;28;20051;-62
2022/04/04 11:57:05;;;;;;;4.80;3.13;;;;;;;;;;5084492;28;20044;-63
2022/04/04 11:59:34;;;;;;;5.07;3.53;;;;;;;;;;5073721;28;20032;-63
2022/04/04 12:02:02;;;;;;;4.95;2.90;;;;;;;;;;5096589;22;20042;-60
2022/04/04 12:04:30;;;;;;;4.03;3.22;;;;;;;;;;5074448;28;20039;-61
2022/04/04 12:06:56;;;;;;;3.95;2.55;;;;;;;;;;5078265;28;20037;-60
2022/04/04 12:09:35;;;;;;;3.13;2.83;;;;;;;;;;5081348;28;20131;-61
2022/04/04 12:12:08;;;;;;;4.13;3.10;;;;;;;;;;5057734;28;20415;-60
2022/04/04 12:14:37;;;;;;;3.75;2.88;;;;;;;;;;5053713;28;20510;-61
2022/04/04 12:17:04;;;;;;;3.88;2.53;;;;;;;;;;5053783;28;20072;-61
2022/04/04 12:19:30;;;;;;;4.05;3.00;;;;;;;;;;5052355;28;20099;-60
2022/04/04 12:21:57;;;;;;;3.33;2.70;;;;;;;;;;5060296;28;20041;-60
2022/04/04 12:27:12;;;;;;;3.65;2.28;;;;;;;;;;5053642;28;20037;-60
2022/04/04 12:29:45;;;;;;;3.20;2.15;;;;;;;;;;5036366;28;20033;-61
2022/04/04 12:32:18;;;;;;;2.95;2.60;;;;;;;;;;5048771;28;20043;-60
2022/04/04 12:34:54;;;;;;;3.53;2.60;;;;;;;;;;5053370;28;20095;-61
2022/04/04 12:37:20;;;;;;;3.05;2.35;;;;;;;;;;5053087;28;20083;-60
2022/04/04 12:39:49;;;;;;;2.92;1.95;;;;;;;;;;5053123;28;20040;-61
2022/04/04 12:42:15;;;;;;;3.78;2.38;;;;;;;;;;5051965;28;20421;-61
2022/04/04 12:44:41;;;;;;;3.33;2.47;;;;;;;;;;5054939;28;20028;-61
2022/04/04 12:47:09;;;;;;;2.13;1.92;;;;;;;;;;5054016;28;20059;-61
2022/04/04 12:49:37;;;;;;;2.80;2.30;;;;;;;;;;5049676;28;20585;-61
2022/04/04 12:52:07;;;;;;;2.72;2.38;;;;;;;;;;5052054;28;20045;-61
2022/04/04 12:54:34;;;;;;;2.78;2.55;;;;;;;;;;5045586;28;20094;-61
2022/04/04 12:57:01;;;;;;;3.72;2.10;;;;;;;;;;5057940;28;20036;-61
2022/04/04 12:59:28;;;;;;;4.78;2.30;;;;;;;;;;5065113;28;20041;-61
2022/04/04 13:02:05;;;;;;;2.67;2.47;;;;;;;;;;5050307;28;20095;-61
2022/04/04 13:04:32;;;;;;;2.80;2.30;;;;;;;;;;5051076;28;20037;-61
2022/04/04 13:07:00;;;;;;;3.58;2.40;;;;;;;;;;5053138;28;20037;-61
2022/04/04 13:09:27;;;;;;;2.70;2.20;;;;;;;;;;5057272;28;20047;-61
2022/04/04 13:11:53;;;;;;;2.45;2.25;;;;;;;;;;5070494;28;20069;-61
2022/04/04 13:14:21;;;;;;;3.00;2.50;;;;;;;;;;5054015;28;20430;-61
2022/04/04 13:16:52;;;;;;;2.50;1.70;;;;;;;;;;5056672;28;20032;-61
2022/04/04 13:19:18;;;;;;;2.50;2.25;;;;;;;;;;5047427;28;20041;-62
2022/04/04 13:21:48;;;;;;;3.00;2.20;;;;;;;;;;5051932;28;20039;-61
2022/04/04 13:24:15;;;;;;;2.90;2.33;;;;;;;;;;5048583;28;20056;-62
2022/04/04 13:26:41;;;;;;;3.92;2.25;;;;;;;;;;5052280;28;20055;-61
2022/04/04 13:29:08;;;;;;;3.05;2.42;;;;;;;;;;5049446;28;20478;-61
2022/04/04 13:31:35;;;;;;;2.50;2.30;;;;;;;;;;5038094;28;20030;-62
2022/04/04 13:34:01;;;;;;;2.65;2.25;;;;;;;;;;5052757;28;20514;-61
2022/04/04 13:36:27;;;;;;;2.85;2.25;;;;;;;;;;5051761;28;20036;-61
2022/04/04 13:38:58;;;;;;;3.55;2.47;;;;;;;;;;5058552;28;20127;-61
2022/04/04 13:41:26;;;;;;;3.08;2.22;;;;;;;;;;5053092;28;20041;-61
2022/04/04 13:43:52;;;;;;;2.50;2.17;;;;;;;;;;5049711;28;20090;-60
2022/04/04 13:46:19;;;;;;;4.32;2.38;;;;;;;;;;5048145;28;20045;-61
2022/04/04 13:48:47;;;;;;;2.47;2.20;;;;;;;;;;5041989;28;20122;-61
2022/04/04 13:51:18;;;;;;;2.30;1.35;;;;;;;;;;5050867;28;20116;-60
2022/04/04 13:53:44;;;;;;;2.03;1.83;;;;;;;;;;5052760;28;20045;-60
2022/04/04 13:56:10;;;;;;;3.88;1.77;;;;;;;;;;5051897;28;20044;-61
2022/04/04 13:58:36;;;;;;;3.58;2.10;;;;;;;;;;5046981;28;20396;-61
2022/04/04 14:01:02;;;;;;;1.80;1.35;;;;;;;;;;5047326;28;20487;-61
2022/04/04 14:03:31;;;;;;;2.85;1.90;;;;;;;;;;5059223;28;20033;-61
2022/04/04 14:05:59;;;;;;;1.70;1.60;;;;;;;;;;5049354;28;20163;-61
2022/04/04 14:08:25;;;;;;;1.42;1.33;;;;;;;;;;5035673;28;20041;-60
2022/04/04 14:10:54;;;;;;;1.50;1.40;;;;;;;;;;5042655;28;20519;-61
2022/04/04 14:13:20;;;;;;;1.55;1.45;;;;;;;;;;5032300;28;20499;-61
2022/04/04 14:15:50;;;;;;;1.83;1.33;;;;;;;;;;5037070;28;20227;-61
2022/04/04 14:18:16;;;;;;;2.50;1.80;;;;;;;;;;5043107;28;20049;-61
2022/04/04 14:20:43;;;;;;;1.85;1.60;;;;;;;;;;5051481;28;20483;-61
2022/04/04 14:23:09;;;;;;;2.10;1.77;;;;;;;;;;5034263;28;20052;-60
2022/04/04 14:25:35;;;;;;;2.20;1.60;;;;;;;;;;5051849;28;20037;-60
2022/04/04 14:28:02;;;;;;;1.40;1.30;;;;;;;;;;5043474;28;20083;-61
2022/04/04 14:30:28;;;;;;;1.50;1.40;;;;;;;;;;5043460;28;20048;-61
2022/04/04 14:32:54;;;;;;;1.40;1.25;;;;;;;;;;5054706;28;20045;-61
2022/04/04 14:35:20;;;;;;;1.48;1.30;;;;;;;;;;5019994;28;20064;-60
2022/04/04 14:37:47;;;;;;;1.65;1.45;;;;;;;;;;5051673;28;20113;-60
2022/04/04 14:40:14;;;;;;;1.90;1.58;;;;;;;;;;5040504;28;20079;-60
2022/04/04 14:42:44;;;;;;;1.77;1.50;;;;;;;;;;5050680;28;20506;-61
2022/04/04 14:45:10;;;;;;;2.70;1.90;;;;;;;;;;5050648;28;20098;-61